sensor_id;sensor_type;location;lat;lon;timestamp;temperature;humidity
9915;DHT22;4996;48.746;9.174;2023-04-01T00:01:34;9.10;99.90
9915;DHT22;4996;48.746;9.174;2023-04-01T00:04:00;9.20;99.90
9915;DHT22;4996;48.746;9.174;2023-04-01T00:06:27;9.30;99.90
9915;DHT22;4996;48.746;9.174;2023-04-01T00:08:53;9.20;99.90
9915;DHT22;4996;48.746;9.174;2023-04-01T00:11:18;9.10;99.90
9915;DHT22;4996;48.746;9.174;2023-04-01T00:13:44;9.10;99.90
9915;DHT22;4996;48.746;9.174;2023-04-01T00:16:10;9.10;99.90
9915;DHT22;4996;48.746;9.174;2023-04-01T00:18:36;9.00;99.90
9915;DHT22;4996;48.746;9.174;2023-04-01T00:21:02;9.10;99.90
9915;DHT22;4996;48.746;9.174;2023-04-01T00:23:27;9.00;99.90
9915;DHT22;4996;48.746;9.174;2023-04-01T00:25:53;9.10;99.90
9915;DHT22;4996;48.746;9.174;2023-04-01T00:28:19;9.10;99.90
9915;DHT22;4996;48.746;9.174;2023-04-01T00:30:45;9.20;99.90
9915;DHT22;4996;48.746;9.174;2023-04-01T00:33:11;9.20;99.90
9915;DHT22;4996;48.746;9.174;2023-04-01T00:35:37;9.20;99.90
9915;DHT22;4996;48.746;9.174;2023-04-01T00:38:03;9.20;99.90
9915;DHT22;4996;48.746;9.174;2023-04-01T00:42:57;9.30;99.90
9915;DHT22;4996;48.746;9.174;2023-04-01T00:45:34;9.30;99.90
9915;DHT22;4996;48.746;9.174;2023-04-01T00:48:05;9.40;99.90
9915;DHT22;4996;48.746;9.174;2023-04-01T00:50:34;9.40;99.90
9915;DHT22;4996;48.746;9.174;2023-04-01T00:53:02;9.20;99.90
9915;DHT22;4996;48.746;9.174;2023-04-01T00:55:31;9.10;99.90
9915;DHT22;4996;48.746;9.174;2023-04-01T00:57:58;9.20;99.90
9915;DHT22;4996;48.746;9.174;2023-04-01T01:00:26;9.20;99.90
9915;DHT22;4996;48.746;9.174;2023-04-01T01:02:52;9.20;99.90
9915;DHT22;4996;48.746;9.174;2023-04-01T01:05:23;9.30;99.90
9915;DHT22;4996;48.746;9.174;2023-04-01T01:08:28;9.40;99.90
9915;DHT22;4996;48.746;9.174;2023-04-01T01:10:55;9.30;99.90
9915;DHT22;4996;48.746;9.174;2023-04-01T01:13:30;9.30;99.90
9915;DHT22;4996;48.746;9.174;2023-04-01T01:18:41;9.20;99.90
9915;DHT22;4996;48.746;9.174;2023-04-01T01:24:40;9.20;99.90
9915;DHT22;4996;48.746;9.174;2023-04-01T01:27:16;9.20;99.90
9915;DHT22;4996;48.746;9.174;2023-04-01T01:32:55;9.20;99.90
9915;DHT22;4996;48.746;9.174;2023-04-01T01:35:46;9.30;99.90
9915;DHT22;4996;48.746;9.174;2023-04-01T01:38:18;9.30;99.90
9915;DHT22;4996;48.746;9.174;2023-04-01T01:40:48;9.40;99.90
9915;DHT22;4996;48.746;9.174;2023-04-01T01:43:21;9.50;99.90
9915;DHT22;4996;48.746;9.174;2023-04-01T01:45:50;9.30;99.90
9915;DHT22;4996;48.746;9.174;2023-04-01T01:48:18;9.20;99.90
9915;DHT22;4996;48.746;9.174;2023-04-01T01:50:45;9.20;99.90
9915;DHT22;4996;48.746;9.174;2023-04-01T01:53:13;9.20;99.90
9915;DHT22;4996;48.746;9.174;2023-04-01T01:55:41;9.20;99.90
9915;DHT22;4996;48.746;9.174;2023-04-01T01:58:31;9.20;99.90
9915;DHT22;4996;48.746;9.174;2023-04-01T02:01:04;9.20;99.90
9915;DHT22;4996;48.746;9.174;2023-04-01T02:03:34;9.20;99.90
9915;DHT22;4996;48.746;9.174;2023-04-01T02:06:04;9.20;99.90
9915;DHT22;4996;48.746;9.174;2023-04-01T02:08:42;9.20;99.90
9915;DHT22;4996;48.746;9.174;2023-04-01T02:11:13;9.00;99.90
9915;DHT22;4996;48.746;9.174;2023-04-01T02:13:42;9.00;99.90
9915;DHT22;4996;48.746;9.174;2023-04-01T02:16:19;9.00;99.90
9915;DHT22;4996;48.746;9.174;2023-04-01T02:18:49;9.10;99.90
9915;DHT22;4996;48.746;9.174;2023-04-01T02:21:18;8.90;99.90
9915;DHT22;4996;48.746;9.174;2023-04-01T02:23:46;8.80;99.90
9915;DHT22;4996;48.746;9.174;2023-04-01T02:26:13;8.90;99.90
9915;DHT22;4996;48.746;9.174;2023-04-01T02:28:39;8.90;99.90
9915;DHT22;4996;48.746;9.174;2023-04-01T02:31:06;8.80;99.90
9915;DHT22;4996;48.746;9.174;2023-04-01T02:33:33;8.80;99.90
9915;DHT22;4996;48.746;9.174;2023-04-01T02:35:59;8.80;99.90
9915;DHT22;4996;48.746;9.174;2023-04-01T02:38:25;8.80;99.90
9915;DHT22;4996;48.746;9.174;2023-04-01T02:41:00;8.70;99.90
9915;DHT22;4996;48.746;9.174;2023-04-01T02:43:26;8.60;99.90
9915;DHT22;4996;48.746;9.174;2023-04-01T02:45:52;8.60;99.90
9915;DHT22;4996;48.746;9.174;2023-04-01T02:48:18;8.60;99.90
9915;DHT22;4996;48.746;9.174;2023-04-01T02:50:43;8.60;99.90
9915;DHT22;4996;48.746;9.174;2023-04-01T02:53:09;8.70;99.90
9915;DHT22;4996;48.746;9.174;2023-04-01T02:55:34;8.50;99.90
9915;DHT22;4996;48.746;9.174;2023-04-01T02:58:00;8.50;99.90
9915;DHT22;4996;48.746;9.174;2023-04-01T03:00:26;8.40;99.90
9915;DHT22;4996;48.746;9.174;2023-04-01T03:02:52;8.40;99.90
9915;DHT22;4996;48.746;9.174;2023-04-01T03:05:17;8.60;99.90
9915;DHT22;4996;48.746;9.174;2023-04-01T03:07:43;8.70;99.90
9915;DHT22;4996;48.746;9.174;2023-04-01T03:10:09;8.50;99.90
9915;DHT22;4996;48.746;9.174;2023-04-01T03:12:35;8.40;99.90
9915;DHT22;4996;48.746;9.174;2023-04-01T03:15:01;8.50;99.90
9915;DHT22;4996;48.746;9.174;2023-04-01T03:17:26;8.50;99.90
9915;DHT22;4996;48.746;9.174;2023-04-01T03:19:52;8.50;99.90
9915;DHT22;4996;48.746;9.174;2023-04-01T03:22:17;8.60;99.90
9915;DHT22;4996;48.746;9.174;2023-04-01T03:24:46;8.60;99.90
9915;DHT22;4996;48.746;9.174;2023-04-01T03:27:12;8.70;99.90
9915;DHT22;4996;48.746;9.174;2023-04-01T03:29:38;8.80;99.90
9915;DHT22;4996;48.746;9.174;2023-04-01T03:32:04;8.80;99.90
9915;DHT22;4996;48.746;9.174;2023-04-01T03:34:29;8.50;99.90
9915;DHT22;4996;48.746;9.174;2023-04-01T03:36:55;8.50;99.90
9915;DHT22;4996;48.746;9.174;2023-04-01T03:39:20;8.50;99.90
9915;DHT22;4996;48.746;9.174;2023-04-01T03:41:46;8.60;99.90
9915;DHT22;4996;48.746;9.174;2023-04-01T03:44:12;8.60;99.90
9915;DHT22;4996;48.746;9.174;2023-04-01T03:46:38;8.50;99.90
9915;DHT22;4996;48.746;9.174;2023-04-01T03:49:07;8.60;99.90
9915;DHT22;4996;48.746;9.174;2023-04-01T03:51:42;8.60;99.90
9915;DHT22;4996;48.746;9.174;2023-04-01T03:54:09;8.60;99.90
9915;DHT22;4996;48.746;9.174;2023-04-01T03:56:35;8.50;99.90
9915;DHT22;4996;48.746;9.174;2023-04-01T03:59:03;8.60;99.90
9915;DHT22;4996;48.746;9.174;2023-04-01T04:01:29;8.60;99.90
9915;DHT22;4996;48.746;9.174;2023-04-01T04:03:55;8.50;99.90
9915;DHT22;4996;48.746;9.174;2023-04-01T04:06:21;8.50;99.90
9915;DHT22;4996;48.746;9.174;2023-04-01T04:08:47;8.40;99.90
9915;DHT22;4996;48.746;9.174;2023-04-01T04:11:14;8.30;99.90
9915;DHT22;4996;48.746;9.174;2023-04-01T04:13:40;8.40;99.90
9915;DHT22;4996;48.746;9.174;2023-04-01T04:16:06;8.30;99.90
9915;DHT22;4996;48.746;9.174;2023-04-01T04:18:32;8.20;99.90
9915;DHT22;4996;48.746;9.174;2023-04-01T04:20:58;8.20;99.90
9915;DHT22;4996;48.746;9.174;2023-04-01T04:23:23;8.30;99.90
9915;DHT22;4996;48.746;9.174;2023-04-01T04:26:01;8.40;99.90
9915;DHT22;4996;48.746;9.174;2023-04-01T04:28:28;8.20;99.90
9915;DHT22;4996;48.746;9.174;2023-04-01T04:30:54;8.20;99.90
9915;DHT22;4996;48.746;9.174;2023-04-01T04:33:21;8.10;99.90
9915;DHT22;4996;48.746;9.174;2023-04-01T04:35:47;8.10;99.90
9915;DHT22;4996;48.746;9.174;2023-04-01T04:38:13;8.00;99.90
9915;DHT22;4996;48.746;9.174;2023-04-01T04:40:39;8.20;99.90
9915;DHT22;4996;48.746;9.174;2023-04-01T04:43:05;8.20;99.90
9915;DHT22;4996;48.746;9.174;2023-04-01T04:45:31;8.30;99.90
9915;DHT22;4996;48.746;9.174;2023-04-01T04:47:57;8.40;99.90
9915;DHT22;4996;48.746;9.174;2023-04-01T04:50:23;8.20;99.90
9915;DHT22;4996;48.746;9.174;2023-04-01T04:52:48;8.10;99.90
9915;DHT22;4996;48.746;9.174;2023-04-01T04:55:14;8.10;99.90
9915;DHT22;4996;48.746;9.174;2023-04-01T04:57:40;8.20;99.90
9915;DHT22;4996;48.746;9.174;2023-04-01T05:00:07;8.30;99.90
9915;DHT22;4996;48.746;9.174;2023-04-01T05:02:33;8.10;99.90
9915;DHT22;4996;48.746;9.174;2023-04-01T05:04:59;8.20;99.90
9915;DHT22;4996;48.746;9.174;2023-04-01T05:07:24;8.20;99.90
9915;DHT22;4996;48.746;9.174;2023-04-01T05:09:50;8.20;99.90
9915;DHT22;4996;48.746;9.174;2023-04-01T05:12:15;8.30;99.90
9915;DHT22;4996;48.746;9.174;2023-04-01T05:14:41;8.30;99.90
9915;DHT22;4996;48.746;9.174;2023-04-01T05:17:13;8.20;99.90
9915;DHT22;4996;48.746;9.174;2023-04-01T05:19:39;8.20;99.90
9915;DHT22;4996;48.746;9.174;2023-04-01T05:22:05;8.20;99.90
9915;DHT22;4996;48.746;9.174;2023-04-01T05:24:31;8.10;99.90
9915;DHT22;4996;48.746;9.174;2023-04-01T05:26:57;8.10;99.90
9915;DHT22;4996;48.746;9.174;2023-04-01T05:29:24;8.10;99.90
9915;DHT22;4996;48.746;9.174;2023-04-01T05:31:50;8.10;99.90
9915;DHT22;4996;48.746;9.174;2023-04-01T05:34:15;8.30;99.90
9915;DHT22;4996;48.746;9.174;2023-04-01T05:36:42;8.20;99.90
9915;DHT22;4996;48.746;9.174;2023-04-01T05:39:08;8.20;99.90
9915;DHT22;4996;48.746;9.174;2023-04-01T05:41:37;8.30;99.90
9915;DHT22;4996;48.746;9.174;2023-04-01T05:44:04;8.30;99.90
9915;DHT22;4996;48.746;9.174;2023-04-01T05:46:30;8.40;99.90
9915;DHT22;4996;48.746;9.174;2023-04-01T05:48:55;8.60;99.90
9915;DHT22;4996;48.746;9.174;2023-04-01T05:51:21;8.60;99.90
9915;DHT22;4996;48.746;9.174;2023-04-01T05:53:46;8.60;99.90
9915;DHT22;4996;48.746;9.174;2023-04-01T05:56:12;8.70;99.90
9915;DHT22;4996;48.746;9.174;2023-04-01T05:58:38;8.50;99.90
9915;DHT22;4996;48.746;9.174;2023-04-01T06:01:10;8.60;99.90
9915;DHT22;4996;48.746;9.174;2023-04-01T06:03:36;8.50;99.90
9915;DHT22;4996;48.746;9.174;2023-04-01T06:06:02;8.70;99.90
9915;DHT22;4996;48.746;9.174;2023-04-01T06:08:30;8.70;99.90
9915;DHT22;4996;48.746;9.174;2023-04-01T06:13:54;8.90;99.90
9915;DHT22;4996;48.746;9.174;2023-04-01T06:16:47;9.00;99.90
9915;DHT22;4996;48.746;9.174;2023-04-01T06:27:57;9.10;99.90
9915;DHT22;4996;48.746;9.174;2023-04-01T06:36:07;8.80;99.90
9915;DHT22;4996;48.746;9.174;2023-04-01T06:44:16;9.20;99.90
9915;DHT22;4996;48.746;9.174;2023-04-01T06:46:56;9.00;99.90
9915;DHT22;4996;48.746;9.174;2023-04-01T06:54:55;9.30;99.90
9915;DHT22;4996;48.746;9.174;2023-04-01T06:57:30;9.30;99.90
9915;DHT22;4996;48.746;9.174;2023-04-01T07:00:00;9.30;99.90
9915;DHT22;4996;48.746;9.174;2023-04-01T07:02:39;9.20;99.90
9915;DHT22;4996;48.746;9.174;2023-04-01T07:05:07;9.30;99.90
9915;DHT22;4996;48.746;9.174;2023-04-01T07:07:52;9.20;99.90
9915;DHT22;4996;48.746;9.174;2023-04-01T07:12:55;9.20;99.90
9915;DHT22;4996;48.746;9.174;2023-04-01T07:15:26;9.30;99.90
9915;DHT22;4996;48.746;9.174;2023-04-01T07:17:57;9.30;99.90
9915;DHT22;4996;48.746;9.174;2023-04-01T07:20:29;9.30;99.90
9915;DHT22;4996;48.746;9.174;2023-04-01T07:23:01;9.30;99.90
9915;DHT22;4996;48.746;9.174;2023-04-01T07:26:00;9.20;99.90
9915;DHT22;4996;48.746;9.174;2023-04-01T07:28:30;9.30;99.90
9915;DHT22;4996;48.746;9.174;2023-04-01T07:33:48;9.50;99.90
9915;DHT22;4996;48.746;9.174;2023-04-01T07:36:39;9.50;99.90
9915;DHT22;4996;48.746;9.174;2023-04-01T07:39:36;9.60;99.90
9915;DHT22;4996;48.746;9.174;2023-04-01T07:42:24;9.40;99.90
9915;DHT22;4996;48.746;9.174;2023-04-01T07:53:33;9.70;99.90
9915;DHT22;4996;48.746;9.174;2023-04-01T07:56:15;9.80;99.90
9915;DHT22;4996;48.746;9.174;2023-04-01T07:58:54;9.70;99.90
9915;DHT22;4996;48.746;9.174;2023-04-01T08:01:31;9.70;99.90
9915;DHT22;4996;48.746;9.174;2023-04-01T08:06:55;9.90;99.90
9915;DHT22;4996;48.746;9.174;2023-04-01T08:17:52;10.00;99.90
9915;DHT22;4996;48.746;9.174;2023-04-01T08:23:24;9.80;99.90
9915;DHT22;4996;48.746;9.174;2023-04-01T08:28:43;9.90;99.90
9915;DHT22;4996;48.746;9.174;2023-04-01T08:31:18;9.80;99.90
9915;DHT22;4996;48.746;9.174;2023-04-01T08:33:47;9.80;99.90
9915;DHT22;4996;48.746;9.174;2023-04-01T08:36:23;9.80;99.90
9915;DHT22;4996;48.746;9.174;2023-04-01T08:50:44;10.00;99.90
9915;DHT22;4996;48.746;9.174;2023-04-01T08:59:05;9.50;99.90
9915;DHT22;4996;48.746;9.174;2023-04-01T09:19:53;9.30;99.90
9915;DHT22;4996;48.746;9.174;2023-04-01T09:22:22;9.40;99.90
9915;DHT22;4996;48.746;9.174;2023-04-01T09:28:03;9.80;99.90
9915;DHT22;4996;48.746;9.174;2023-04-01T09:31:16;10.20;99.90
9915;DHT22;4996;48.746;9.174;2023-04-01T09:37:33;10.20;99.90
9915;DHT22;4996;48.746;9.174;2023-04-01T09:40:09;10.30;99.90
9915;DHT22;4996;48.746;9.174;2023-04-01T09:46:06;10.30;99.90
9915;DHT22;4996;48.746;9.174;2023-04-01T09:51:31;10.20;99.90
9915;DHT22;4996;48.746;9.174;2023-04-01T09:54:18;10.20;99.90
9915;DHT22;4996;48.746;9.174;2023-04-01T10:00:15;10.20;99.90
9915;DHT22;4996;48.746;9.174;2023-04-01T10:19:47;10.30;99.90
9915;DHT22;4996;48.746;9.174;2023-04-01T10:22:24;10.40;99.90
9915;DHT22;4996;48.746;9.174;2023-04-01T10:31:06;10.60;99.90
9915;DHT22;4996;48.746;9.174;2023-04-01T10:56:34;11.40;99.90
9915;DHT22;4996;48.746;9.174;2023-04-01T11:02:15;11.60;99.90
9915;DHT22;4996;48.746;9.174;2023-04-01T11:07:59;11.30;99.90
9915;DHT22;4996;48.746;9.174;2023-04-01T11:13:56;11.10;99.90
9915;DHT22;4996;48.746;9.174;2023-04-01T11:19:52;11.20;99.90
9915;DHT22;4996;48.746;9.174;2023-04-01T11:25:29;11.50;99.90
9915;DHT22;4996;48.746;9.174;2023-04-01T11:33:43;12.20;99.90
9915;DHT22;4996;48.746;9.174;2023-04-01T11:36:28;12.50;99.90
9915;DHT22;4996;48.746;9.174;2023-04-01T11:39:28;12.40;99.90
9915;DHT22;4996;48.746;9.174;2023-04-01T11:44:28;12.50;99.90
9915;DHT22;4996;48.746;9.174;2023-04-01T11:47:19;12.30;99.90
9915;DHT22;4996;48.746;9.174;2023-04-01T11:50:03;12.10;99.90
9915;DHT22;4996;48.746;9.174;2023-04-01T11:53:08;12.10;99.90
9915;DHT22;4996;48.746;9.174;2023-04-01T11:55:50;12.10;99.90
9915;DHT22;4996;48.746;9.174;2023-04-01T11:58:36;11.70;99.90
9915;DHT22;4996;48.746;9.174;2023-04-01T12:01:48;11.70;99.90
9915;DHT22;4996;48.746;9.174;2023-04-01T12:10:33;11.30;99.90
9915;DHT22;4996;48.746;9.174;2023-04-01T12:19:14;11.30;99.90
9915;DHT22;4996;48.746;9.174;2023-04-01T12:22:12;11.50;99.90
9915;DHT22;4996;48.746;9.174;2023-04-01T12:24:49;11.20;99.90
9915;DHT22;4996;48.746;9.174;2023-04-01T12:27:38;11.30;99.90
9915;DHT22;4996;48.746;9.174;2023-04-01T13:00:44;12.20;99.90
9915;DHT22;4996;48.746;9.174;2023-04-01T13:06:09;12.10;99.90
9915;DHT22;4996;48.746;9.174;2023-04-01T13:09:01;12.10;99.90
9915;DHT22;4996;48.746;9.174;2023-04-01T13:16:54;11.80;99.90
9915;DHT22;4996;48.746;9.174;2023-04-01T13:19:28;11.90;99.90
9915;DHT22;4996;48.746;9.174;2023-04-01T13:24:44;12.20;99.90
9915;DHT22;4996;48.746;9.174;2023-04-01T13:27:25;12.00;99.90
9915;DHT22;4996;48.746;9.174;2023-04-01T13:32:59;11.90;99.90
9915;DHT22;4996;48.746;9.174;2023-04-01T13:35:47;12.00;99.90
9915;DHT22;4996;48.746;9.174;2023-04-01T13:42:49;12.20;99.90
9915;DHT22;4996;48.746;9.174;2023-04-01T13:45:22;12.00;99.90
9915;DHT22;4996;48.746;9.174;2023-04-01T13:50:49;11.80;99.90
9915;DHT22;4996;48.746;9.174;2023-04-01T13:53:49;12.00;99.90
9915;DHT22;4996;48.746;9.174;2023-04-01T13:56:34;12.10;99.90
9915;DHT22;4996;48.746;9.174;2023-04-01T14:07:48;12.00;99.90
9915;DHT22;4996;48.746;9.174;2023-04-01T14:13:12;12.00;99.90
9915;DHT22;4996;48.746;9.174;2023-04-01T14:15:52;11.80;99.90
9915;DHT22;4996;48.746;9.174;2023-04-01T14:24:29;12.00;99.90
9915;DHT22;4996;48.746;9.174;2023-04-01T14:33:03;12.00;99.90
9915;DHT22;4996;48.746;9.174;2023-04-01T14:35:41;11.80;99.90
9915;DHT22;4996;48.746;9.174;2023-04-01T14:38:46;12.00;99.90
9915;DHT22;4996;48.746;9.174;2023-04-01T14:41:20;11.80;99.90
9915;DHT22;4996;48.746;9.174;2023-04-01T14:44:05;11.70;99.90
9915;DHT22;4996;48.746;9.174;2023-04-01T14:49:05;11.90;99.90
9915;DHT22;4996;48.746;9.174;2023-04-01T14:51:39;12.00;99.90
9915;DHT22;4996;48.746;9.174;2023-04-01T14:56:44;11.70;99.90
9915;DHT22;4996;48.746;9.174;2023-04-01T15:12:48;12.20;99.90
9915;DHT22;4996;48.746;9.174;2023-04-01T15:18:33;11.80;99.90
9915;DHT22;4996;48.746;9.174;2023-04-01T15:26:46;12.00;99.90
9915;DHT22;4996;48.746;9.174;2023-04-01T15:30:21;12.30;99.90
9915;DHT22;4996;48.746;9.174;2023-04-01T15:38:21;11.90;99.90
9915;DHT22;4996;48.746;9.174;2023-04-01T15:41:00;11.70;99.90
9915;DHT22;4996;48.746;9.174;2023-04-01T15:43:48;11.70;99.90
9915;DHT22;4996;48.746;9.174;2023-04-01T15:51:54;11.50;99.90
9915;DHT22;4996;48.746;9.174;2023-04-01T16:00:28;11.40;99.90
9915;DHT22;4996;48.746;9.174;2023-04-01T16:08:45;11.20;99.90
9915;DHT22;4996;48.746;9.174;2023-04-01T16:11:34;11.10;99.90
9915;DHT22;4996;48.746;9.174;2023-04-01T16:19:59;11.50;99.90
9915;DHT22;4996;48.746;9.174;2023-04-01T16:22:38;11.50;99.90
9915;DHT22;4996;48.746;9.174;2023-04-01T16:25:26;11.40;99.90
9915;DHT22;4996;48.746;9.174;2023-04-01T16:33:22;11.70;99.90
9915;DHT22;4996;48.746;9.174;2023-04-01T16:36:11;11.50;99.90
9915;DHT22;4996;48.746;9.174;2023-04-01T16:38:50;11.50;99.90
9915;DHT22;4996;48.746;9.174;2023-04-01T16:41:37;11.60;99.90
9915;DHT22;4996;48.746;9.174;2023-04-01T16:44:22;11.70;99.90
9915;DHT22;4996;48.746;9.174;2023-04-01T16:47:06;11.80;99.90
9915;DHT22;4996;48.746;9.174;2023-04-01T16:49:46;11.80;99.90
9915;DHT22;4996;48.746;9.174;2023-04-01T16:52:15;11.70;99.90
9915;DHT22;4996;48.746;9.174;2023-04-01T16:54:47;11.60;99.90
9915;DHT22;4996;48.746;9.174;2023-04-01T16:57:24;11.60;99.90
9915;DHT22;4996;48.746;9.174;2023-04-01T17:02:54;11.80;99.90
9915;DHT22;4996;48.746;9.174;2023-04-01T17:10:56;11.50;99.90
9915;DHT22;4996;48.746;9.174;2023-04-01T17:13:46;11.60;99.90
9915;DHT22;4996;48.746;9.174;2023-04-01T17:19:28;11.60;99.90
9915;DHT22;4996;48.746;9.174;2023-04-01T17:22:22;11.50;99.90
9915;DHT22;4996;48.746;9.174;2023-04-01T17:25:12;11.50;99.90
9915;DHT22;4996;48.746;9.174;2023-04-01T17:30:24;11.40;99.90
9915;DHT22;4996;48.746;9.174;2023-04-01T17:33:16;11.40;99.90
9915;DHT22;4996;48.746;9.174;2023-04-01T17:36:16;11.50;99.90
9915;DHT22;4996;48.746;9.174;2023-04-01T17:57:54;11.50;99.90
9915;DHT22;4996;48.746;9.174;2023-04-01T18:14:13;11.30;99.90
9915;DHT22;4996;48.746;9.174;2023-04-01T18:16:51;11.30;99.90
9915;DHT22;4996;48.746;9.174;2023-04-01T18:22:20;11.40;99.90
9915;DHT22;4996;48.746;9.174;2023-04-01T18:25:05;11.20;99.90
9915;DHT22;4996;48.746;9.174;2023-04-01T18:27:41;11.30;99.90
9915;DHT22;4996;48.746;9.174;2023-04-01T18:30:29;11.30;99.90
9915;DHT22;4996;48.746;9.174;2023-04-01T18:38:34;10.80;99.90
9915;DHT22;4996;48.746;9.174;2023-04-01T18:41:26;10.70;99.90
9915;DHT22;4996;48.746;9.174;2023-04-01T18:44:26;10.40;99.90
9915;DHT22;4996;48.746;9.174;2023-04-01T18:50:28;10.30;99.90
9915;DHT22;4996;48.746;9.174;2023-04-01T18:56:03;10.20;99.90
9915;DHT22;4996;48.746;9.174;2023-04-01T19:17:40;10.10;99.90
9915;DHT22;4996;48.746;9.174;2023-04-01T19:20:36;10.10;99.90
9915;DHT22;4996;48.746;9.174;2023-04-01T19:25:51;10.10;99.90
9915;DHT22;4996;48.746;9.174;2023-04-01T19:34:14;10.00;99.90
9915;DHT22;4996;48.746;9.174;2023-04-01T19:40:03;9.90;99.90
9915;DHT22;4996;48.746;9.174;2023-04-01T19:42:44;9.90;99.90
9915;DHT22;4996;48.746;9.174;2023-04-01T19:53:43;10.10;99.90
9915;DHT22;4996;48.746;9.174;2023-04-01T19:56:19;9.90;99.90
9915;DHT22;4996;48.746;9.174;2023-04-01T20:01:38;9.90;99.90
9915;DHT22;4996;48.746;9.174;2023-04-01T20:04:15;9.90;99.90
9915;DHT22;4996;48.746;9.174;2023-04-01T20:06:54;10.00;99.90
9915;DHT22;4996;48.746;9.174;2023-04-01T20:09:50;10.00;99.90
9915;DHT22;4996;48.746;9.174;2023-04-01T20:12:21;10.10;99.90
9915;DHT22;4996;48.746;9.174;2023-04-01T20:14:53;10.10;99.90
9915;DHT22;4996;48.746;9.174;2023-04-01T20:20:01;10.10;99.90
9915;DHT22;4996;48.746;9.174;2023-04-01T20:26:12;9.80;99.90
9915;DHT22;4996;48.746;9.174;2023-04-01T20:41:27;9.90;99.90
9915;DHT22;4996;48.746;9.174;2023-04-01T20:44:13;9.80;99.90
9915;DHT22;4996;48.746;9.174;2023-04-01T20:49:32;9.80;99.90
9915;DHT22;4996;48.746;9.174;2023-04-01T21:02:56;10.00;99.90
9915;DHT22;4996;48.746;9.174;2023-04-01T21:08:17;9.90;99.90
9915;DHT22;4996;48.746;9.174;2023-04-01T21:11:03;9.90;99.90
9915;DHT22;4996;48.746;9.174;2023-04-01T21:19:02;9.90;99.90
9915;DHT22;4996;48.746;9.174;2023-04-01T21:24:32;9.80;99.90
9915;DHT22;4996;48.746;9.174;2023-04-01T21:29:53;9.80;99.90
9915;DHT22;4996;48.746;9.174;2023-04-01T21:38:43;9.80;99.90
9915;DHT22;4996;48.746;9.174;2023-04-01T21:41:49;9.80;99.90
9915;DHT22;4996;48.746;9.174;2023-04-01T21:50:27;9.70;99.90
9915;DHT22;4996;48.746;9.174;2023-04-01T21:53:10;9.70;99.90
9915;DHT22;4996;48.746;9.174;2023-04-01T22:04:42;9.70;99.90
9915;DHT22;4996;48.746;9.174;2023-04-01T22:07:22;9.50;99.90
9915;DHT22;4996;48.746;9.174;2023-04-01T22:12:54;9.60;99.90
9915;DHT22;4996;48.746;9.174;2023-04-01T22:15:45;9.60;99.90
9915;DHT22;4996;48.746;9.174;2023-04-01T22:21:10;9.80;99.90
9915;DHT22;4996;48.746;9.174;2023-04-01T22:23:59;9.80;99.90
9915;DHT22;4996;48.746;9.174;2023-04-01T22:29:24;9.70;99.90
9915;DHT22;4996;48.746;9.174;2023-04-01T22:31:58;9.70;99.90
9915;DHT22;4996;48.746;9.174;2023-04-01T22:40:00;9.80;99.90
9915;DHT22;4996;48.746;9.174;2023-04-01T22:42:44;9.70;99.90
9915;DHT22;4996;48.746;9.174;2023-04-01T22:51:00;9.60;99.90
9915;DHT22;4996;48.746;9.174;2023-04-01T22:56:32;9.70;99.90
9915;DHT22;4996;48.746;9.174;2023-04-01T22:59:19;9.60;99.90
9915;DHT22;4996;48.746;9.174;2023-04-01T23:01:57;9.50;99.90
9915;DHT22;4996;48.746;9.174;2023-04-01T23:04:31;9.50;99.90
9915;DHT22;4996;48.746;9.174;2023-04-01T23:07:00;9.50;99.90
9915;DHT22;4996;48.746;9.174;2023-04-01T23:09:29;9.60;99.90
9915;DHT22;4996;48.746;9.174;2023-04-01T23:12:01;9.60;99.90
9915;DHT22;4996;48.746;9.174;2023-04-01T23:14:41;9.60;99.90
9915;DHT22;4996;48.746;9.174;2023-04-01T23:17:39;9.70;99.90
9915;DHT22;4996;48.746;9.174;2023-04-01T23:26:10;9.50;99.90
9915;DHT22;4996;48.746;9.174;2023-04-01T23:28:48;9.50;99.90
9915;DHT22;4996;48.746;9.174;2023-04-01T23:34:30;9.50;99.90
9915;DHT22;4996;48.746;9.174;2023-04-01T23:36:59;9.30;99.90
9915;DHT22;4996;48.746;9.174;2023-04-01T23:39:32;9.30;99.90
9915;DHT22;4996;48.746;9.174;2023-04-01T23:44:40;9.50;99.90
9915;DHT22;4996;48.746;9.174;2023-04-01T23:47:08;9.40;99.90
9915;DHT22;4996;48.746;9.174;2023-04-01T23:49:48;9.40;99.90
9915;DHT22;4996;48.746;9.174;2023-04-01T23:52:31;9.40;99.90
9915;DHT22;4996;48.746;9.174;2023-04-01T23:55:19;9.40;99.90
